Time;durP1;ratioP1;P1;durP2;ratioP2;P2;SDS_P1;SDS_P2;PMS_P1;PMS_P2;Temp;Humidity;BMP_temperature;BMP_pressure;BME280_temperature;BME280_humidity;BME280_pressure;Samples;Min_cycle;Max_cycle;Signal;HPM_P1;HPM_P2
2021/01/23 00:01:51;;;;;;;3.10;2.80;;;4.90;99.90;;;;;;5051577;28;20449;-67
2021/01/23 00:04:17;;;;;;;2.90;2.63;;;5.00;99.90;;;;;;5046435;28;20233;-67
2021/01/23 00:06:42;;;;;;;2.80;2.57;;;4.90;99.90;;;;;;5035042;28;20274;-68
2021/01/23 00:09:08;;;;;;;2.80;2.00;;;4.90;99.90;;;;;;5052960;28;20179;-65
2021/01/23 00:11:33;;;;;;;2.80;2.30;;;4.80;99.90;;;;;;5051851;28;20207;-66
2021/01/23 00:13:59;;;;;;;2.50;2.30;;;4.70;99.90;;;;;;5053029;28;20236;-68
2021/01/23 00:16:24;;;;;;;3.00;2.17;;;4.70;99.90;;;;;;5053199;28;20641;-66
2021/01/23 00:18:50;;;;;;;4.10;2.57;;;4.70;99.90;;;;;;5052955;28;20171;-66
2021/01/23 00:21:16;;;;;;;4.40;2.60;;;4.70;99.90;;;;;;5052633;28;20186;-65
2021/01/23 00:23:41;;;;;;;2.60;2.40;;;4.60;99.90;;;;;;5052691;28;20214;-65
2021/01/23 00:26:07;;;;;;;3.77;2.47;;;4.60;99.90;;;;;;5040465;28;20176;-68
2021/01/23 00:28:33;;;;;;;3.90;2.40;;;4.70;99.90;;;;;;5034458;28;20207;-66
2021/01/23 00:31:00;;;;;;;2.60;2.40;;;4.70;99.90;;;;;;5052476;28;20198;-68
2021/01/23 00:33:25;;;;;;;6.13;3.30;;;4.60;99.90;;;;;;5052452;28;20421;-69
2021/01/23 00:35:51;;;;;;;3.70;2.60;;;4.60;99.90;;;;;;5040528;28;20431;-67
2021/01/23 00:38:17;;;;;;;3.33;2.77;;;4.70;99.90;;;;;;5052603;28;20175;-67
2021/01/23 00:40:42;;;;;;;2.87;2.60;;;4.70;99.90;;;;;;5052518;28;20183;-68
2021/01/23 00:43:08;;;;;;;4.23;2.90;;;4.70;99.90;;;;;;5052558;28;20181;-68
2021/01/23 00:45:34;;;;;;;5.47;2.63;;;4.70;99.90;;;;;;5052468;28;20183;-68
2021/01/23 00:48:07;;;;;;;5.10;2.63;;;4.70;99.90;;;;;;5052530;28;20183;-67
2021/01/23 00:50:33;;;;;;;4.90;3.37;;;4.70;99.90;;;;;;5052663;28;20579;-68
2021/01/23 00:52:58;;;;;;;3.80;3.00;;;4.60;99.90;;;;;;5052508;28;20422;-68
2021/01/23 00:55:24;;;;;;;3.50;3.20;;;4.60;99.90;;;;;;5032395;28;20618;-68
2021/01/23 00:57:50;;;;;;;3.40;3.10;;;4.60;99.90;;;;;;5043315;28;20521;-68
2021/01/23 01:00:16;;;;;;;5.17;3.17;;;4.60;99.90;;;;;;5042122;28;20283;-69
2021/01/23 01:02:41;;;;;;;5.33;3.40;;;4.60;99.90;;;;;;5036247;28;20179;-66
2021/01/23 01:05:08;;;;;;;3.77;3.33;;;4.60;99.90;;;;;;5042984;28;20421;-67
2021/01/23 01:07:33;;;;;;;4.00;3.50;;;4.60;99.90;;;;;;5039513;28;20179;-67
2021/01/23 01:09:59;;;;;;;4.43;4.03;;;4.60;99.90;;;;;;5052024;28;20423;-67
2021/01/23 01:12:25;;;;;;;5.73;3.80;;;4.60;99.90;;;;;;5051827;28;20178;-68
2021/01/23 01:14:50;;;;;;;4.10;3.60;;;4.60;99.90;;;;;;5048340;28;20198;-67
2021/01/23 01:17:16;;;;;;;4.33;3.63;;;4.60;99.90;;;;;;5051237;28;20198;-67
2021/01/23 01:19:42;;;;;;;5.47;3.60;;;4.60;99.90;;;;;;5051828;28;20249;-69
2021/01/23 01:22:08;;;;;;;6.70;4.17;;;4.60;99.90;;;;;;5047833;28;20537;-68
2021/01/23 01:24:34;;;;;;;4.97;4.30;;;4.50;99.90;;;;;;5037256;28;20416;-67
2021/01/23 01:26:59;;;;;;;5.17;4.23;;;4.50;99.90;;;;;;5051482;28;20213;-69
2021/01/23 01:29:25;;;;;;;5.90;4.90;;;4.50;99.90;;;;;;5051582;28;20179;-67
2021/01/23 01:31:50;;;;;;;5.43;4.53;;;4.60;99.90;;;;;;5051378;28;20195;-68
2021/01/23 01:34:16;;;;;;;5.80;4.40;;;4.60;99.90;;;;;;5042178;28;20172;-68
2021/01/23 01:36:42;;;;;;;6.23;4.50;;;4.60;99.90;;;;;;5044010;28;20653;-69
2021/01/23 01:39:07;;;;;;;5.73;4.80;;;4.60;99.90;;;;;;5051414;28;20182;-66
2021/01/23 01:41:37;;;;;;;5.40;4.27;;;4.60;99.90;;;;;;5051498;28;20633;-67
2021/01/23 01:44:03;;;;;;;7.00;4.27;;;4.50;99.90;;;;;;5051192;28;20197;-68
2021/01/23 01:46:29;;;;;;;5.63;3.90;;;4.60;99.90;;;;;;5051110;28;22608;-67
2021/01/23 01:48:56;;;;;;;4.37;3.77;;;4.50;99.90;;;;;;5049958;28;20416;-66
2021/01/23 01:51:21;;;;;;;6.07;4.10;;;4.50;99.90;;;;;;5034349;28;20500;-67
2021/01/23 01:53:47;;;;;;;5.30;4.10;;;4.60;99.90;;;;;;5038395;28;20812;-67
2021/01/23 01:56:12;;;;;;;6.97;4.13;;;4.60;99.90;;;;;;5051311;28;20183;-67
2021/01/23 01:58:38;;;;;;;5.33;3.60;;;4.60;99.90;;;;;;5050884;28;20187;-69
2021/01/23 02:01:04;;;;;;;5.60;3.60;;;4.60;99.90;;;;;;5046635;28;20677;-67
2021/01/23 02:03:41;;;;;;;4.70;4.00;;;4.60;99.90;;;;;;5036757;28;20218;-68
2021/01/23 02:06:38;;;;;;;4.30;3.90;;;4.50;99.90;;;;;;5041387;28;20564;-67
2021/01/23 02:09:28;;;;;;;4.47;3.53;;;4.50;99.90;;;;;;5050363;28;20421;-67
2021/01/23 02:12:05;;;;;;;5.43;3.20;;;4.60;99.90;;;;;;5049827;28;20461;-68
2021/01/23 02:14:54;;;;;;;4.77;3.63;;;4.50;99.90;;;;;;5050780;28;20416;-66
2021/01/23 02:17:27;;;;;;;6.97;3.60;;;4.50;99.90;;;;;;5051096;28;20413;-67
2021/01/23 02:20:02;;;;;;;5.10;3.90;;;4.50;99.90;;;;;;5050752;28;20412;-67
2021/01/23 02:23:01;;;;;;;4.03;3.40;;;4.60;99.90;;;;;;5050782;28;20405;-67
2021/01/23 02:25:30;;;;;;;4.77;3.07;;;4.60;99.90;;;;;;5050762;28;20449;-67
2021/01/23 02:28:11;;;;;;;5.63;3.33;;;4.50;99.90;;;;;;5031293;28;20417;-67
2021/01/23 02:30:47;;;;;;;5.60;3.43;;;4.50;99.90;;;;;;5050873;28;20477;-67
2021/01/23 02:33:15;;;;;;;7.10;3.80;;;4.60;99.90;;;;;;5050796;28;20428;-67
2021/01/23 02:35:42;;;;;;;7.07;4.33;;;4.60;99.90;;;;;;5052663;28;20402;-67
2021/01/23 02:38:08;;;;;;;8.33;4.00;;;4.60;99.90;;;;;;5051882;28;20811;-69
2021/01/23 02:40:34;;;;;;;5.70;3.83;;;4.60;99.90;;;;;;5036806;28;20410;-68
2021/01/23 02:43:00;;;;;;;6.77;4.43;;;4.60;99.90;;;;;;5051732;28;20179;-67
2021/01/23 02:45:26;;;;;;;8.30;4.50;;;4.60;99.90;;;;;;5046404;28;20437;-68
2021/01/23 02:47:51;;;;;;;6.57;4.77;;;4.70;99.90;;;;;;5042501;28;20641;-67
2021/01/23 02:50:17;;;;;;;9.07;5.30;;;4.70;99.90;;;;;;5054482;28;20198;-68
2021/01/23 02:53:21;;;;;;;5.23;4.70;;;4.70;99.90;;;;;;5054637;28;20171;-66
2021/01/23 02:55:53;;;;;;;6.47;5.10;;;4.70;99.90;;;;;;5054764;28;20225;-67
2021/01/23 02:58:23;;;;;;;12.27;5.50;;;4.70;99.90;;;;;;5034898;28;20429;-67
2021/01/23 03:00:59;;;;;;;8.30;5.90;;;4.70;99.90;;;;;;5051974;28;20503;-66
2021/01/23 03:03:26;;;;;;;10.57;5.53;;;4.80;99.90;;;;;;5036737;28;20453;-67
2021/01/23 03:05:52;;;;;;;10.93;5.83;;;4.70;99.90;;;;;;5047104;28;20500;-69
2021/01/23 03:08:18;;;;;;;8.10;5.43;;;4.60;99.90;;;;;;5044741;28;20429;-68
2021/01/23 03:10:45;;;;;;;11.50;6.07;;;4.50;99.90;;;;;;5038512;28;20465;-67
2021/01/23 03:13:12;;;;;;;8.77;5.77;;;4.60;99.90;;;;;;5042427;28;20623;-67
2021/01/23 03:15:38;;;;;;;8.00;5.77;;;4.60;99.90;;;;;;5039693;28;20459;-69
2021/01/23 03:18:05;;;;;;;11.67;5.83;;;4.60;99.90;;;;;;5052217;28;20836;-68
2021/01/23 03:20:30;;;;;;;10.77;6.50;;;4.60;99.90;;;;;;5033885;28;20923;-68
2021/01/23 03:22:57;;;;;;;6.60;5.57;;;4.60;99.90;;;;;;5033951;28;20415;-68
2021/01/23 03:25:24;;;;;;;8.37;5.07;;;4.60;99.90;;;;;;5034055;28;20243;-66
2021/01/23 03:27:50;;;;;;;11.40;5.80;;;4.60;99.90;;;;;;5033755;28;20418;-68
2021/01/23 03:30:19;;;;;;;6.47;5.47;;;4.60;99.90;;;;;;5046265;28;20457;-68
2021/01/23 03:32:46;;;;;;;8.03;5.13;;;4.60;99.90;;;;;;5053562;28;20703;-68
2021/01/23 03:35:12;;;;;;;8.37;5.70;;;4.60;99.90;;;;;;5053743;28;20405;-66
2021/01/23 03:37:38;;;;;;;7.80;5.13;;;4.70;99.90;;;;;;5053320;28;20409;-68
2021/01/23 03:40:06;;;;;;;7.10;4.60;;;4.60;99.90;;;;;;5053624;28;20424;-66
2021/01/23 03:42:32;;;;;;;7.97;5.00;;;4.70;99.90;;;;;;5053718;28;20596;-66
2021/01/23 03:44:58;;;;;;;10.07;4.97;;;4.60;99.90;;;;;;5053182;28;20422;-65
2021/01/23 03:47:23;;;;;;;8.10;5.00;;;4.60;99.90;;;;;;5053259;28;20398;-65
2021/01/23 03:49:49;;;;;;;6.83;4.73;;;4.60;99.90;;;;;;5043820;28;20175;-66
2021/01/23 03:52:15;;;;;;;7.03;4.83;;;4.60;99.90;;;;;;5034882;28;20196;-66
2021/01/23 03:54:41;;;;;;;7.33;4.50;;;4.60;99.90;;;;;;5047942;28;20179;-67
2021/01/23 03:57:08;;;;;;;7.43;4.70;;;4.60;99.90;;;;;;5047559;28;20182;-68
2021/01/23 03:59:34;;;;;;;6.87;4.83;;;4.60;99.90;;;;;;5053392;28;20492;-66
2021/01/23 04:02:00;;;;;;;5.07;4.10;;;4.60;99.90;;;;;;5052192;28;20548;-66
2021/01/23 04:04:25;;;;;;;6.70;4.30;;;4.50;99.90;;;;;;5035028;28;20201;-68
2021/01/23 04:06:51;;;;;;;7.87;4.07;;;4.50;99.90;;;;;;5053160;28;20261;-67
2021/01/23 04:09:16;;;;;;;6.23;4.57;;;4.40;99.90;;;;;;5047485;28;20176;-67
2021/01/23 04:11:42;;;;;;;5.73;4.00;;;4.40;99.90;;;;;;5053159;28;20210;-70
2021/01/23 04:14:07;;;;;;;6.07;4.83;;;4.40;99.90;;;;;;5052824;28;20273;-66
2021/01/23 04:16:33;;;;;;;8.57;4.37;;;4.40;99.90;;;;;;5052728;28;20199;-68
2021/01/23 04:18:59;;;;;;;7.53;4.83;;;4.30;99.90;;;;;;5045251;28;20195;-68
2021/01/23 04:21:24;;;;;;;6.27;5.13;;;4.40;99.90;;;;;;5046445;28;20583;-68
2021/01/23 04:23:50;;;;;;;8.80;5.80;;;4.40;99.90;;;;;;5044687;28;20210;-67
2021/01/23 04:26:15;;;;;;;7.40;5.27;;;4.30;99.90;;;;;;5052834;28;20294;-66
2021/01/23 04:28:41;;;;;;;9.63;5.53;;;4.30;99.90;;;;;;5034647;28;20202;-66
2021/01/23 04:31:07;;;;;;;10.23;5.33;;;4.30;99.90;;;;;;5045144;28;20582;-64
2021/01/23 04:33:34;;;;;;;6.60;4.80;;;4.30;99.90;;;;;;5032441;28;20187;-65
2021/01/23 04:36:00;;;;;;;11.23;5.50;;;4.30;99.90;;;;;;5051273;28;20172;-69
2021/01/23 04:38:26;;;;;;;7.47;5.63;;;4.30;99.90;;;;;;5034445;28;20409;-67
2021/01/23 04:40:55;;;;;;;10.57;6.10;;;4.30;99.90;;;;;;5045011;28;20484;-68
2021/01/23 04:43:22;;;;;;;8.17;6.00;;;4.30;99.90;;;;;;5032581;28;20578;-66
2021/01/23 04:45:48;;;;;;;7.67;6.40;;;4.30;99.90;;;;;;5052448;28;20421;-68
2021/01/23 04:48:18;;;;;;;11.10;6.53;;;4.40;99.90;;;;;;5051069;28;20429;-65
2021/01/23 04:50:47;;;;;;;8.77;5.67;;;4.30;99.90;;;;;;5046416;28;20446;-69
2021/01/23 04:53:14;;;;;;;5.97;4.07;;;4.20;99.90;;;;;;5039807;28;20911;-68
2021/01/23 04:55:40;;;;;;;9.20;5.97;;;4.20;99.90;;;;;;5052062;28;20420;-69
2021/01/23 04:58:05;;;;;;;10.40;5.63;;;4.20;99.90;;;;;;5051441;28;20768;-69
2021/01/23 05:00:31;;;;;;;7.43;5.77;;;4.20;99.90;;;;;;5045285;28;20175;-67
2021/01/23 05:03:01;;;;;;;8.43;4.40;;;4.20;99.90;;;;;;5030967;28;20203;-69
2021/01/23 05:05:28;;;;;;;7.37;5.47;;;4.20;99.90;;;;;;5046077;28;20261;-68
2021/01/23 05:08:11;;;;;;;8.87;5.67;;;4.10;99.90;;;;;;5033933;28;20425;-69
2021/01/23 05:10:41;;;;;;;9.10;5.77;;;4.10;99.90;;;;;;5052137;28;20445;-67
2021/01/23 05:13:17;;;;;;;6.80;5.30;;;4.20;99.90;;;;;;5049498;28;20414;-66
2021/01/23 05:15:44;;;;;;;7.63;5.33;;;4.10;99.90;;;;;;5048085;28;20429;-69
2021/01/23 05:18:16;;;;;;;8.07;5.73;;;4.10;99.90;;;;;;5051318;28;20413;-68
2021/01/23 05:20:54;;;;;;;6.80;5.00;;;4.10;99.90;;;;;;5051576;28;20427;-67
2021/01/23 05:23:22;;;;;;;6.73;5.07;;;4.10;99.90;;;;;;5051655;28;20424;-67
2021/01/23 05:25:50;;;;;;;9.20;5.53;;;4.10;99.90;;;;;;5051723;28;20422;-67
2021/01/23 05:28:28;;;;;;;7.13;4.20;;;4.20;99.90;;;;;;5051033;28;20425;-69
2021/01/23 05:30:55;;;;;;;7.13;5.00;;;4.30;99.90;;;;;;5051427;28;20462;-70
2021/01/23 05:33:23;;;;;;;8.90;5.27;;;4.30;99.90;;;;;;5033352;28;20405;-68
2021/01/23 05:35:59;;;;;;;6.17;5.37;;;4.30;99.90;;;;;;5051693;28;20406;-68
2021/01/23 05:38:30;;;;;;;6.77;6.07;;;4.30;99.90;;;;;;5050827;28;20413;-68
2021/01/23 05:41:08;;;;;;;7.93;6.67;;;4.30;99.90;;;;;;5051244;28;20476;-69
2021/01/23 05:43:48;;;;;;;12.73;7.97;;;4.30;99.90;;;;;;5042183;28;20517;-68
2021/01/23 05:46:15;;;;;;;13.67;8.60;;;4.20;99.90;;;;;;5031297;28;20776;-67
2021/01/23 05:48:49;;;;;;;15.37;8.87;;;4.20;99.90;;;;;;5047901;28;20436;-68
2021/01/23 05:51:17;;;;;;;12.90;8.20;;;4.20;99.90;;;;;;5031685;28;20461;-67
2021/01/23 05:53:44;;;;;;;10.67;7.90;;;4.20;99.90;;;;;;5051252;28;20468;-68
2021/01/23 05:56:10;;;;;;;11.13;8.37;;;4.20;99.90;;;;;;5042457;28;20414;-67
2021/01/23 05:58:37;;;;;;;12.77;8.97;;;4.10;99.90;;;;;;5039553;28;20414;-69
2021/01/23 06:01:07;;;;;;;15.70;10.63;;;4.10;99.90;;;;;;5032930;28;20501;-69
2021/01/23 06:03:39;;;;;;;15.37;10.57;;;4.10;99.90;;;;;;5036457;28;20414;-67
2021/01/23 06:06:04;;;;;;;14.03;9.70;;;4.10;99.90;;;;;;5050923;28;20420;-67
2021/01/23 06:08:47;;;;;;;11.53;7.80;;;4.10;99.90;;;;;;5050725;28;20509;-67
2021/01/23 06:11:18;;;;;;;5.80;3.93;;;4.10;99.90;;;;;;5050048;28;20217;-68
2021/01/23 06:13:46;;;;;;;10.73;8.57;;;4.00;99.90;;;;;;5050660;28;20802;-69
2021/01/23 06:16:37;;;;;;;10.20;7.60;;;3.90;99.90;;;;;;5050720;28;20468;-69
2021/01/23 06:19:02;;;;;;;9.37;7.77;;;3.90;99.90;;;;;;5050775;28;21936;-67
2021/01/23 06:21:48;;;;;;;8.93;5.80;;;3.90;99.90;;;;;;5050935;28;20410;-68
2021/01/23 06:24:16;;;;;;;6.37;5.33;;;3.80;99.90;;;;;;5050521;28;20171;-68
2021/01/23 06:27:01;;;;;;;8.93;6.50;;;3.80;99.90;;;;;;5050519;28;20418;-67
2021/01/23 06:29:44;;;;;;;10.57;5.03;;;3.80;99.90;;;;;;5049587;28;20421;-68
2021/01/23 06:32:19;;;;;;;6.03;5.27;;;3.70;99.90;;;;;;5050601;28;20554;-65
2021/01/23 06:34:45;;;;;;;9.20;7.73;;;3.80;99.90;;;;;;5032544;28;21392;-66
2021/01/23 06:37:31;;;;;;;10.80;8.37;;;3.80;99.90;;;;;;5050715;28;20418;-66
2021/01/23 06:39:59;;;;;;;10.67;6.83;;;3.90;99.90;;;;;;5039820;28;20430;-68
2021/01/23 06:42:25;;;;;;;7.73;5.37;;;3.80;99.90;;;;;;5033460;28;20411;-69
2021/01/23 06:44:51;;;;;;;5.17;4.57;;;3.80;99.90;;;;;;5037798;28;20789;-65
2021/01/23 06:47:17;;;;;;;9.63;8.27;;;3.80;99.90;;;;;;5049976;28;20760;-65
2021/01/23 06:49:43;;;;;;;9.70;8.00;;;3.80;99.90;;;;;;5050532;28;20439;-69
2021/01/23 06:52:10;;;;;;;8.67;6.87;;;3.80;99.90;;;;;;5050061;28;20539;-70
2021/01/23 06:54:37;;;;;;;9.97;7.60;;;3.90;99.90;;;;;;5050514;28;20409;-68
2021/01/23 06:57:06;;;;;;;12.23;7.30;;;3.80;99.90;;;;;;5036236;28;20504;-68
2021/01/23 06:59:33;;;;;;;7.90;5.90;;;3.80;99.90;;;;;;5043985;28;20457;-67
2021/01/23 07:02:10;;;;;;;8.43;6.90;;;3.80;99.90;;;;;;5040210;28;20458;-67
2021/01/23 07:04:36;;;;;;;8.83;7.10;;;3.80;99.90;;;;;;5034459;28;20417;-68
2021/01/23 07:07:07;;;;;;;10.73;7.20;;;3.90;99.90;;;;;;5050340;28;20418;-68
2021/01/23 07:09:44;;;;;;;7.63;6.50;;;3.90;99.90;;;;;;5050225;28;20252;-67
2021/01/23 07:12:12;;;;;;;7.77;6.30;;;3.80;99.90;;;;;;5050199;28;20449;-65
2021/01/23 07:14:38;;;;;;;9.10;5.00;;;3.90;99.90;;;;;;5029034;28;20418;-67
2021/01/23 07:17:12;;;;;;;7.07;6.37;;;3.90;99.90;;;;;;5050392;28;20508;-65
2021/01/23 07:19:39;;;;;;;7.73;6.13;;;3.90;99.90;;;;;;5050196;28;20500;-67
2021/01/23 07:22:05;;;;;;;8.93;6.13;;;3.80;99.90;;;;;;5052495;28;20418;-68
2021/01/23 07:24:32;;;;;;;5.97;4.77;;;3.80;99.90;;;;;;5054165;28;20421;-65
2021/01/23 07:26:58;;;;;;;8.33;6.40;;;3.70;99.90;;;;;;5053984;28;20712;-67
2021/01/23 07:29:24;;;;;;;9.23;6.77;;;3.70;99.90;;;;;;5053877;28;20508;-67
2021/01/23 07:31:54;;;;;;;7.73;6.20;;;3.70;99.90;;;;;;5053380;28;20234;-66
2021/01/23 07:34:19;;;;;;;8.13;6.50;;;3.70;99.90;;;;;;5053894;28;20517;-66
2021/01/23 07:36:47;;;;;;;8.30;7.20;;;3.70;99.90;;;;;;5053760;28;20414;-66
2021/01/23 07:39:17;;;;;;;4.93;4.20;;;3.70;99.90;;;;;;5053595;28;20200;-65
2021/01/23 07:41:54;;;;;;;8.57;5.97;;;3.70;99.90;;;;;;5045891;28;20419;-65
2021/01/23 07:44:20;;;;;;;9.40;7.87;;;3.60;99.90;;;;;;5033579;28;20920;-67
2021/01/23 07:46:47;;;;;;;9.23;7.30;;;3.70;99.90;;;;;;5033831;28;20414;-66
2021/01/23 07:49:27;;;;;;;10.43;8.40;;;3.70;99.90;;;;;;5033171;28;20423;-67
2021/01/23 07:52:06;;;;;;;10.07;8.03;;;3.70;99.90;;;;;;5033416;28;20469;-65
2021/01/23 07:54:31;;;;;;;9.07;7.00;;;3.80;99.90;;;;;;5033640;28;20414;-66
2021/01/23 07:56:57;;;;;;;10.43;8.37;;;3.70;99.90;;;;;;5033403;28;20426;-64
2021/01/23 07:59:43;;;;;;;9.33;7.13;;;3.70;99.90;;;;;;5045083;28;20171;-65
2021/01/23 08:02:09;;;;;;;10.40;8.20;;;3.80;99.90;;;;;;5053117;28;20536;-66
2021/01/23 08:04:37;;;;;;;10.30;8.27;;;3.70;99.90;;;;;;5052814;28;20974;-66
2021/01/23 08:07:20;;;;;;;7.80;5.97;;;3.70;99.90;;;;;;5035302;28;20277;-63
2021/01/23 08:10:05;;;;;;;11.27;8.00;;;3.70;99.90;;;;;;5052721;28;21953;-67
2021/01/23 08:12:31;;;;;;;8.97;7.30;;;3.70;99.90;;;;;;5052768;28;20425;-66
2021/01/23 08:14:57;;;;;;;8.27;6.87;;;3.70;99.90;;;;;;5053100;28;20418;-65
2021/01/23 08:17:46;;;;;;;6.30;5.23;;;3.70;99.90;;;;;;5052816;28;20174;-65
2021/01/23 08:20:13;;;;;;;14.97;7.53;;;3.70;99.90;;;;;;5053051;28;20503;-68
2021/01/23 08:23:11;;;;;;;10.60;8.23;;;3.70;99.90;;;;;;5052464;28;20779;-67
2021/01/23 08:25:48;;;;;;;7.87;6.03;;;3.70;99.90;;;;;;5052603;28;20957;-68
2021/01/23 08:28:16;;;;;;;12.83;6.63;;;3.80;99.90;;;;;;5052851;28;20448;-67
2021/01/23 08:30:42;;;;;;;9.87;7.83;;;3.70;99.90;;;;;;5052358;28;21178;-67
2021/01/23 08:33:11;;;;;;;10.90;8.37;;;3.70;99.90;;;;;;5038673;28;20415;-67
2021/01/23 08:35:39;;;;;;;11.73;8.27;;;3.70;99.90;;;;;;5028768;28;20175;-67
2021/01/23 08:38:07;;;;;;;10.63;8.83;;;3.70;99.90;;;;;;5052289;28;20417;-67
2021/01/23 08:40:32;;;;;;;10.87;7.67;;;3.70;99.90;;;;;;5052612;28;20962;-67
2021/01/23 08:42:58;;;;;;;12.53;8.40;;;3.80;99.90;;;;;;5052347;28;20418;-67
2021/01/23 08:45:25;;;;;;;8.60;5.73;;;3.80;99.90;;;;;;5052279;28;20787;-69
2021/01/23 08:47:51;;;;;;;12.67;8.53;;;3.80;99.90;;;;;;5052146;28;20191;-67
2021/01/23 08:50:17;;;;;;;11.83;9.43;;;3.70;99.90;;;;;;5051762;28;20417;-67
2021/01/23 08:52:43;;;;;;;11.43;9.57;;;3.80;99.90;;;;;;5051087;28;20171;-68
2021/01/23 08:55:09;;;;;;;11.43;9.47;;;3.80;99.90;;;;;;5051940;28;20547;-67
2021/01/23 08:57:35;;;;;;;11.30;9.70;;;3.90;99.90;;;;;;5051895;28;20512;-67
2021/01/23 09:00:01;;;;;;;12.63;9.63;;;4.00;99.90;;;;;;5052159;28;20401;-68
2021/01/23 09:02:27;;;;;;;10.90;9.27;;;4.00;99.90;;;;;;5051710;28;20471;-67
2021/01/23 09:04:52;;;;;;;12.70;9.00;;;4.10;99.90;;;;;;5051811;28;20190;-66
2021/01/23 09:07:18;;;;;;;13.03;9.10;;;4.20;99.90;;;;;;5051806;28;20209;-68
2021/01/23 09:09:46;;;;;;;12.33;8.37;;;4.20;99.90;;;;;;5051800;28;20171;-66
2021/01/23 09:12:11;;;;;;;11.90;8.40;;;4.30;99.90;;;;;;5051753;28;20198;-67
2021/01/23 09:14:38;;;;;;;9.97;8.90;;;4.30;99.90;;;;;;5033551;28;20414;-66
2021/01/23 09:17:04;;;;;;;11.17;8.57;;;4.40;99.90;;;;;;5051913;28;20645;-67
2021/01/23 09:19:30;;;;;;;10.63;8.60;;;4.40;99.90;;;;;;5033564;28;20756;-66
2021/01/23 09:21:56;;;;;;;9.83;8.13;;;4.50;99.90;;;;;;5051851;28;20429;-68
2021/01/23 09:24:21;;;;;;;10.63;8.87;;;4.40;99.90;;;;;;5035289;28;20698;-65
2021/01/23 09:26:47;;;;;;;10.20;8.73;;;4.40;99.90;;;;;;5031257;28;20204;-65
2021/01/23 09:29:13;;;;;;;9.07;6.67;;;4.40;99.90;;;;;;5031666;28;20195;-65
2021/01/23 09:31:39;;;;;;;9.87;8.57;;;4.50;99.90;;;;;;5038143;28;20214;-66
2021/01/23 09:34:05;;;;;;;10.13;7.27;;;4.60;99.90;;;;;;5048320;28;20645;-65
2021/01/23 09:36:32;;;;;;;9.67;8.03;;;4.70;99.90;;;;;;5038383;28;20493;-65
2021/01/23 09:38:57;;;;;;;8.57;7.30;;;4.80;99.90;;;;;;5033673;28;20194;-66
2021/01/23 09:41:23;;;;;;;9.73;7.37;;;4.90;99.90;;;;;;5045773;28;20426;-66
2021/01/23 09:43:49;;;;;;;9.80;6.80;;;5.00;99.90;;;;;;5035410;28;20179;-65
2021/01/23 09:46:14;;;;;;;8.20;6.37;;;5.10;99.90;;;;;;5043449;28;20289;-65
2021/01/23 09:48:40;;;;;;;7.27;5.93;;;5.20;99.90;;;;;;5051306;28;20672;-67
2021/01/23 09:51:06;;;;;;;6.40;5.63;;;5.30;99.90;;;;;;5043923;28;20203;-66
2021/01/23 09:53:32;;;;;;;12.87;5.90;;;5.30;99.90;;;;;;5042058;28;20509;-66
2021/01/23 09:55:57;;;;;;;6.60;5.40;;;5.30;99.90;;;;;;5051026;28;20249;-66
2021/01/23 09:58:23;;;;;;;7.17;4.63;;;5.40;99.90;;;;;;5033212;28;20174;-66
2021/01/23 10:00:49;;;;;;;5.33;4.27;;;5.50;99.90;;;;;;5041768;28;20191;-67
2021/01/23 10:03:15;;;;;;;7.03;3.97;;;5.50;99.90;;;;;;5039743;28;20211;-67
2021/01/23 10:05:40;;;;;;;4.17;3.60;;;5.70;99.90;;;;;;5038969;28;20229;-66
2021/01/23 10:08:06;;;;;;;3.47;3.17;;;5.80;99.90;;;;;;5048930;28;20511;-67
2021/01/23 10:10:32;;;;;;;4.70;3.53;;;5.90;99.90;;;;;;5047044;28;20207;-66
2021/01/23 10:12:58;;;;;;;6.57;3.10;;;6.00;99.90;;;;;;5045440;28;20356;-66
2021/01/23 10:15:24;;;;;;;6.73;3.40;;;6.00;99.90;;;;;;5050920;28;20414;-66
2021/01/23 10:17:49;;;;;;;5.20;4.00;;;6.10;99.90;;;;;;5050993;28;20170;-66
2021/01/23 10:20:15;;;;;;;4.87;2.80;;;6.20;99.90;;;;;;5050848;28;20187;-67
2021/01/23 10:22:41;;;;;;;4.10;2.70;;;6.30;99.90;;;;;;5049560;28;20175;-67
2021/01/23 10:25:14;;;;;;;3.20;2.70;;;6.40;99.90;;;;;;5029406;28;20513;-67
2021/01/23 10:27:39;;;;;;;18.33;13.87;;;6.50;99.90;;;;;;5030760;28;20429;-64
2021/01/23 10:30:06;;;;;;;8.03;4.33;;;6.70;99.90;;;;;;5050980;28;20409;-68
2021/01/23 10:32:32;;;;;;;3.73;2.33;;;6.70;99.90;;;;;;5032458;28;20720;-66
2021/01/23 10:34:58;;;;;;;3.63;2.70;;;6.70;99.90;;;;;;5045047;28;20525;-66
2021/01/23 10:37:23;;;;;;;7.20;3.43;;;6.80;99.90;;;;;;5050879;28;20173;-66
2021/01/23 10:39:49;;;;;;;4.33;2.47;;;6.80;99.90;;;;;;5045534;28;20188;-66
2021/01/23 10:42:15;;;;;;;2.57;2.33;;;6.80;99.90;;;;;;5046602;28;20213;-66
2021/01/23 10:44:41;;;;;;;3.70;2.07;;;6.80;99.90;;;;;;5035890;28;20245;-66
2021/01/23 10:47:07;;;;;;;4.97;2.50;;;6.70;99.90;;;;;;5030934;28;20422;-66
2021/01/23 10:49:34;;;;;;;3.80;2.30;;;6.60;99.90;;;;;;5050195;28;20175;-65
2021/01/23 10:52:00;;;;;;;2.57;2.17;;;6.60;99.90;;;;;;5047269;28;20457;-66
2021/01/23 10:54:27;;;;;;;3.53;2.10;;;6.70;99.90;;;;;;5029330;28;20409;-66
2021/01/23 10:56:53;;;;;;;2.53;2.00;;;6.70;99.90;;;;;;5052782;28;20410;-66
2021/01/23 10:59:18;;;;;;;2.77;2.10;;;6.80;99.90;;;;;;5036837;28;20445;-66
2021/01/23 11:01:44;;;;;;;3.90;2.17;;;6.80;99.90;;;;;;5044821;28;20969;-66
2021/01/23 11:04:10;;;;;;;1.83;1.43;;;6.90;99.90;;;;;;5034919;28;20175;-66
2021/01/23 11:06:35;;;;;;;2.83;2.13;;;7.00;99.90;;;;;;5045693;28;20258;-65
2021/01/23 11:09:01;;;;;;;5.60;2.00;;;7.00;99.90;;;;;;5047706;28;20629;-66
2021/01/23 11:11:27;;;;;;;1.97;1.53;;;7.20;99.90;;;;;;5047667;28;20194;-64
2021/01/23 11:13:52;;;;;;;4.53;2.17;;;7.30;99.90;;;;;;5032055;28;20182;-65
2021/01/23 11:16:18;;;;;;;3.57;1.97;;;7.30;99.90;;;;;;5050385;28;20198;-66
2021/01/23 11:18:44;;;;;;;2.53;1.63;;;7.40;99.90;;;;;;5047662;28;20564;-64
2021/01/23 11:21:09;;;;;;;3.00;1.40;;;7.40;99.90;;;;;;5040720;28;20508;-65
2021/01/23 11:23:35;;;;;;;3.97;1.30;;;7.40;99.90;;;;;;5033741;28;20646;-65
2021/01/23 11:26:01;;;;;;;5.57;1.90;;;7.30;99.90;;;;;;5054189;28;20655;-66
2021/01/23 11:28:27;;;;;;;3.00;1.40;;;7.30;99.90;;;;;;5041087;28;20187;-66
2021/01/23 11:30:53;;;;;;;2.63;1.30;;;7.40;99.90;;;;;;5033884;28;21009;-66
2021/01/23 11:33:21;;;;;;;3.13;1.33;;;7.30;99.90;;;;;;5051087;28;20176;-65
2021/01/23 11:35:48;;;;;;;5.37;3.20;;;7.30;99.90;;;;;;5049589;28;20783;-64
2021/01/23 11:38:14;;;;;;;5.37;4.33;;;7.00;99.90;;;;;;5054243;28;20748;-66
2021/01/23 11:40:41;;;;;;;8.23;5.07;;;7.00;99.90;;;;;;5040313;28;20517;-66
2021/01/23 11:43:07;;;;;;;10.37;5.47;;;6.70;99.90;;;;;;5035615;28;20425;-65
2021/01/23 11:45:32;;;;;;;5.97;5.37;;;6.50;99.90;;;;;;5053684;28;20422;-67
2021/01/23 11:47:58;;;;;;;7.20;5.00;;;6.40;99.90;;;;;;5049081;28;20433;-66
2021/01/23 11:50:23;;;;;;;6.87;4.47;;;6.40;99.90;;;;;;5043363;28;20183;-66
2021/01/23 11:52:49;;;;;;;7.43;5.20;;;6.30;99.90;;;;;;5050937;28;20171;-67
2021/01/23 11:55:15;;;;;;;6.97;4.97;;;6.20;99.90;;;;;;5046862;28;20175;-65
2021/01/23 11:57:40;;;;;;;5.93;4.40;;;6.10;99.90;;;;;;5054055;28;20190;-67
2021/01/23 12:00:07;;;;;;;5.13;4.20;;;6.20;99.90;;;;;;5053647;28;20178;-66
2021/01/23 12:02:33;;;;;;;9.03;5.43;;;6.20;99.90;;;;;;5044097;28;20234;-66
2021/01/23 12:04:58;;;;;;;5.00;4.23;;;6.20;99.90;;;;;;5053606;28;20426;-65
2021/01/23 12:07:24;;;;;;;6.70;4.53;;;6.20;99.90;;;;;;5052925;28;20179;-66
2021/01/23 12:09:49;;;;;;;9.60;4.83;;;6.30;99.90;;;;;;5053840;28;20557;-66
2021/01/23 12:12:15;;;;;;;5.17;4.07;;;6.20;99.90;;;;;;5053433;28;20675;-66
2021/01/23 12:14:42;;;;;;;5.10;3.93;;;6.30;99.90;;;;;;5013202;28;23022;-66
2021/01/23 12:17:08;;;;;;;5.80;4.60;;;6.40;99.90;;;;;;5039442;28;20255;-66
2021/01/23 12:19:34;;;;;;;7.90;4.93;;;6.30;99.90;;;;;;5033481;28;20420;-66
2021/01/23 12:22:00;;;;;;;7.53;4.73;;;6.30;99.90;;;;;;5047439;28;20923;-66
2021/01/23 12:24:26;;;;;;;9.47;4.63;;;6.40;99.90;;;;;;5053979;28;20637;-67
2021/01/23 12:26:52;;;;;;;4.53;4.03;;;6.40;99.90;;;;;;5051757;28;20467;-66
2021/01/23 12:29:17;;;;;;;5.27;3.13;;;6.50;99.90;;;;;;5052003;28;20253;-66
2021/01/23 12:31:43;;;;;;;9.17;4.73;;;6.40;99.90;;;;;;5035327;28;20248;-66
2021/01/23 12:34:10;;;;;;;5.47;4.37;;;6.40;99.90;;;;;;5034031;28;20218;-66
2021/01/23 12:36:36;;;;;;;7.87;4.33;;;6.40;99.90;;;;;;5052789;28;20525;-66
2021/01/23 12:39:03;;;;;;;6.33;4.07;;;6.50;99.90;;;;;;5018588;28;20425;-66
2021/01/23 12:41:29;;;;;;;6.30;3.40;;;6.60;99.90;;;;;;5053020;28;20520;-66
2021/01/23 12:43:54;;;;;;;5.17;3.23;;;6.60;99.90;;;;;;5053295;28;20991;-66
2021/01/23 12:46:20;;;;;;;3.73;2.97;;;6.60;99.90;;;;;;5053408;28;20187;-66
2021/01/23 12:48:49;;;;;;;4.60;3.50;;;6.50;99.90;;;;;;5051576;28;20633;-68
2021/01/23 12:51:16;;;;;;;8.33;2.97;;;6.50;99.90;;;;;;5039245;28;20187;-68
2021/01/23 12:53:42;;;;;;;4.77;2.80;;;6.50;99.90;;;;;;5048310;28;20453;-65
2021/01/23 12:56:08;;;;;;;4.63;2.80;;;6.50;99.90;;;;;;5044060;28;20429;-66
2021/01/23 12:58:33;;;;;;;4.17;2.60;;;6.60;99.90;;;;;;5046936;28;20242;-65
2021/01/23 13:00:59;;;;;;;5.63;2.70;;;6.50;99.90;;;;;;5043616;28;20178;-65